Chippewa Falls, WI (54729)

3:34 PM CDT on September 03, 2015 (GMT -0500)
Lake Wissota | | Change Station
CLOSE
Current Station
Personal Weather Station
Location: Chippewa Falls, WI
Elevation: 925 ft
Nearby Weather Stations

Elev 925 ft 44.98 °N, 91.34 °W | Updated 0 second ago

Clear
Clear
84.4 °F
Feels Like 85 °F
N
5.8
Wind Variable Wind from East
Gusts 5.8 mph

Today
High -- | Low -- °F
--% Chance of Precip.
Yesterday
High -- | Low -- °F
Precip. -- in
6:29 AM 7:39 PM
Waning Gibbous, 67% visible
Pressure 29.91 in
Visibility 10.0 miles
Clouds Clear
Heat Index 85 °F
Dew Point 61 °F
Humidity 46%
Rainfall 0.00 in
Snow Depth Not available.
UV 6 out of 12
Pollen 9.40 out of 12
Air Quality Not available.
Flu Activity Not available.
METAR KEAU 031956Z 12006KT 10SM CLR 27/19 A2992 RMK AO2 SLP127 T02720194
Pressure 29.91 in
Visibility 10.0 miles
Clouds Clear
Heat Index 85 °F
Dew Point 61 °F
Humidity 46%
Rainfall 0.00 in
Snow Depth Not available.
UV 6 out of 12
Pollen 9.40 out of 12
Air Quality Not available.
Flu Activity Not available.
METAR KEAU 031956Z 12006KT 10SM CLR 27/19 A2992 RMK AO2 SLP127 T02720194

10-Day Weather Forecast

×

Almanac

Astronomy

Sep. 03, 2015 Rise Set
Actual Time
Civil Twilight
Nautical Twilight
Astronomical Twilight
Moon
Length of Visible Light
Length of Day
Tomorrow will be .
, % of the Moon is Illuminated

Today's Extremes

State Highs State Lows

Community

WunderPhotos

Upload Photos

1,852,032 photos uploaded!

WunderBlogs® & News

Nearby

Air Quality

  Air Quality AQ Index Pollutant
Not available.

Snow Depth

Station Depth Elevation

Earthquake Activity

City Distance Mag. Time & Date
Minimum magnitude displayed is 2.5.

Coastal Water Temperatures

Place Temperature

Stations

Nearby Weather Stations

Station Location Temp. Windchill Dew Point Humidity Wind Precip. Elev Updated Type